Terminal Aerodrome Forecast
Issued by NWS Melbourne, FL

Home | Current Version | Previous Version | Text Only | Print | Product List | Glossary On
Versions: 1 2 3 4 5 6 7 8 9 10 11 12 13
000
FTUS42 KMLB 291600 AAA
TAFDAB
TAF AMD
KDAB 291657Z 2917/3012 26010KT P6SM VCSH SCT040 SCT080 BKN250
      TEMPO 2917/2919 VRB20G35KT 2SM TSRA BKN025CB OVC080
     FM292100 27010KT P6SM SCT035 BKN120 BKN250
     FM300000 24007KT P6SM SCT040 BKN250=

USA.gov is the U.S. government's official web portal to all federal, state and local government web resources and services.